createdAt,value
2023-11-15T00:01:28.015Z,95.51
2023-11-15T00:03:55.255Z,96.24
2023-11-15T00:06:22.618Z,95.96
2023-11-15T00:08:50.001Z,96.14
2023-11-15T00:11:20.343Z,96.02
2023-11-15T00:13:51.829Z,95.71
2023-11-15T00:16:19.427Z,95.80
2023-11-15T00:18:46.622Z,95.82
2023-11-15T00:21:13.805Z,96.50
2023-11-15T00:23:40.983Z,95.18
2023-11-15T00:26:08.172Z,95.68
2023-11-15T00:28:35.267Z,97.34
2023-11-15T00:31:02.464Z,97.62
2023-11-15T00:33:29.941Z,97.30
2023-11-15T00:35:57.505Z,97.52
2023-11-15T00:38:24.806Z,98.16
2023-11-15T00:40:52.352Z,97.69
2023-11-15T00:43:20.155Z,97.90
2023-11-15T00:45:47.361Z,96.67
2023-11-15T00:48:15.649Z,98.36
2023-11-15T00:50:43.064Z,98.31
2023-11-15T00:53:10.254Z,98.02
2023-11-15T00:55:37.377Z,98.74
2023-11-15T00:58:05.193Z,97.41
2023-11-15T01:00:40.728Z,99.32
2023-11-15T01:03:08.045Z,99.19
2023-11-15T01:05:35.338Z,99.68
2023-11-15T01:08:05.473Z,99.32
2023-11-15T01:10:33.225Z,100.00
2023-11-15T01:13:00.340Z,99.50
2023-11-15T01:15:27.568Z,100.00
2023-11-15T01:17:58.342Z,99.60
2023-11-15T01:20:26.410Z,99.91
2023-11-15T01:22:53.537Z,100.00
2023-11-15T01:25:21.825Z,100.00
2023-11-15T01:27:48.956Z,100.00
2023-11-15T01:30:16.313Z,100.00
2023-11-15T01:32:43.751Z,100.00
2023-11-15T01:35:11.019Z,100.00
2023-11-15T01:37:38.081Z,100.00
2023-11-15T01:40:07.928Z,100.00
2023-11-15T01:42:35.301Z,100.00
2023-11-15T01:45:04.118Z,100.00
2023-11-15T01:47:31.780Z,100.00
2023-11-15T01:50:00.730Z,100.00
2023-11-15T01:52:29.904Z,100.00
2023-11-15T01:55:00.068Z,100.00
2023-11-15T01:57:27.525Z,100.00
2023-11-15T01:59:56.112Z,100.00
2023-11-15T02:02:23.269Z,100.00
2023-11-15T02:04:50.464Z,100.00
2023-11-15T02:07:17.740Z,100.00
2023-11-15T02:09:45.485Z,100.00
2023-11-15T02:12:12.657Z,100.00
2023-11-15T02:14:39.937Z,100.00
2023-11-15T02:17:07.126Z,100.00
2023-11-15T02:19:34.333Z,100.00
2023-11-15T02:22:01.515Z,100.00
2023-11-15T02:24:29.542Z,100.00
2023-11-15T02:26:56.814Z,100.00
2023-11-15T02:29:25.007Z,100.00
2023-11-15T02:31:52.110Z,100.00
2023-11-15T02:34:19.479Z,100.00
2023-11-15T02:36:46.590Z,100.00
2023-11-15T02:39:14.687Z,100.00
2023-11-15T02:41:42.353Z,100.00
2023-11-15T02:44:11.611Z,100.00
2023-11-15T02:46:38.875Z,100.00
2023-11-15T02:49:06.106Z,100.00
2023-11-15T02:51:33.327Z,100.00
2023-11-15T02:54:00.540Z,100.00
2023-11-15T02:56:27.718Z,100.00
2023-11-15T02:58:54.773Z,100.00
2023-11-15T03:01:21.936Z,100.00
2023-11-15T03:03:49.430Z,100.00
2023-11-15T03:06:16.662Z,100.00
2023-11-15T03:08:43.729Z,100.00
2023-11-15T03:11:10.934Z,100.00
2023-11-15T03:13:38.069Z,100.00
2023-11-15T03:16:05.673Z,100.00
2023-11-15T03:18:33.318Z,100.00
2023-11-15T03:21:00.556Z,100.00
2023-11-15T03:23:27.789Z,100.00
2023-11-15T03:25:54.965Z,100.00
2023-11-15T03:28:22.079Z,100.00
2023-11-15T03:30:49.215Z,100.00
2023-11-15T03:33:16.405Z,100.00
2023-11-15T03:35:44.030Z,100.00
2023-11-15T03:38:11.141Z,100.00
2023-11-15T03:40:38.365Z,100.00
2023-11-15T03:43:05.422Z,100.00
2023-11-15T03:45:32.463Z,100.00
2023-11-15T03:48:01.430Z,100.00
2023-11-15T03:50:28.870Z,100.00
2023-11-15T03:52:56.131Z,100.00
2023-11-15T03:55:23.251Z,100.00
2023-11-15T03:57:51.329Z,100.00
2023-11-15T04:00:19.105Z,100.00
2023-11-15T04:02:49.535Z,100.00
2023-11-15T04:05:18.449Z,100.00
2023-11-15T04:07:45.935Z,100.00
2023-11-15T04:10:14.210Z,100.00
2023-11-15T04:12:42.334Z,100.00
2023-11-15T04:15:13.409Z,100.00
2023-11-15T04:17:40.618Z,100.00
2023-11-15T04:20:09.857Z,100.00
2023-11-15T04:22:37.098Z,100.00
2023-11-15T04:25:05.982Z,100.00
2023-11-15T04:27:33.088Z,100.00
2023-11-15T04:30:00.302Z,100.00
2023-11-15T04:32:27.501Z,100.00
2023-11-15T04:34:54.586Z,100.00
2023-11-15T04:37:22.315Z,100.00
2023-11-15T04:39:49.711Z,100.00
2023-11-15T04:42:20.183Z,100.00
2023-11-15T04:44:47.410Z,100.00
2023-11-15T04:47:14.553Z,100.00
2023-11-15T04:49:42.317Z,100.00
2023-11-15T04:52:09.872Z,100.00
2023-11-15T04:54:37.011Z,100.00
2023-11-15T04:57:04.750Z,100.00
2023-11-15T04:59:33.022Z,100.00
2023-11-15T05:02:00.375Z,100.00
2023-11-15T05:04:27.805Z,100.00
2023-11-15T05:06:55.674Z,100.00
2023-11-15T05:09:24.469Z,100.00
2023-11-15T05:11:51.752Z,100.00
2023-11-15T05:14:18.813Z,100.00
2023-11-15T05:16:45.908Z,100.00
2023-11-15T05:19:13.010Z,100.00
2023-11-15T05:21:40.132Z,100.00
2023-11-15T05:24:07.932Z,100.00
2023-11-15T05:26:35.113Z,100.00
2023-11-15T05:29:02.268Z,100.00
2023-11-15T05:31:29.477Z,100.00
2023-11-15T05:33:56.667Z,100.00
2023-11-15T05:36:23.870Z,100.00
2023-11-15T05:38:50.933Z,100.00
2023-11-15T05:41:18.199Z,100.00
2023-11-15T05:43:46.656Z,100.00
2023-11-15T05:46:13.852Z,100.00
2023-11-15T05:48:41.218Z,100.00
2023-11-15T05:51:08.374Z,100.00
2023-11-15T05:53:35.596Z,100.00
2023-11-15T05:56:02.771Z,100.00
2023-11-15T05:58:29.981Z,100.00
2023-11-15T06:00:57.092Z,100.00
2023-11-15T06:03:25.414Z,100.00
2023-11-15T06:05:52.575Z,100.00
2023-11-15T06:08:20.464Z,100.00
2023-11-15T06:10:49.330Z,100.00
2023-11-15T06:13:17.096Z,100.00
2023-11-15T06:15:44.923Z,100.00
2023-11-15T06:18:14.793Z,100.00
2023-11-15T06:20:42.016Z,100.00
2023-11-15T06:23:10.167Z,100.00
2023-11-15T06:25:37.362Z,100.00
2023-11-15T06:28:04.756Z,100.00
2023-11-15T06:30:32.165Z,100.00
2023-11-15T06:32:59.696Z,100.00
2023-11-15T06:35:26.795Z,100.00
2023-11-15T06:37:55.624Z,100.00
2023-11-15T06:40:22.807Z,100.00
2023-11-15T06:42:50.013Z,100.00
2023-11-15T06:45:18.391Z,100.00
2023-11-15T06:47:45.528Z,100.00
2023-11-15T06:50:13.868Z,100.00
2023-11-15T06:52:41.428Z,100.00
2023-11-15T06:55:11.410Z,100.00
2023-11-15T06:57:42.845Z,100.00
2023-11-15T07:00:14.798Z,100.00
2023-11-15T07:02:45.115Z,100.00
2023-11-15T07:05:12.743Z,100.00
2023-11-15T07:07:40.294Z,100.00
2023-11-15T07:10:08.466Z,100.00
2023-11-15T07:12:36.809Z,100.00
2023-11-15T07:15:09.288Z,100.00
2023-11-15T07:17:36.640Z,100.00
2023-11-15T07:20:07.216Z,100.00
2023-11-15T07:22:35.256Z,100.00
2023-11-15T07:25:04.135Z,100.00
2023-11-15T07:27:32.927Z,100.00
2023-11-15T07:30:02.087Z,100.00
2023-11-15T07:32:29.408Z,100.00
2023-11-15T07:34:57.063Z,100.00
2023-11-15T07:37:24.163Z,100.00
2023-11-15T07:40:05.495Z,100.00
2023-11-15T07:42:33.805Z,100.00
2023-11-15T07:45:03.612Z,100.00
2023-11-15T07:47:35.527Z,100.00
2023-11-15T07:50:04.511Z,100.00
2023-11-15T07:52:32.789Z,100.00
2023-11-15T07:55:02.006Z,100.00
2023-11-15T07:57:29.452Z,100.00
2023-11-15T07:59:57.394Z,100.00
2023-11-15T08:02:24.645Z,100.00
2023-11-15T08:04:52.471Z,100.00
2023-11-15T08:07:19.789Z,100.00
2023-11-15T08:09:48.686Z,100.00
2023-11-15T08:12:15.951Z,100.00
2023-11-15T08:14:43.069Z,100.00
2023-11-15T08:17:12.374Z,100.00
2023-11-15T08:19:39.583Z,100.00
2023-11-15T08:22:07.235Z,100.00
2023-11-15T08:24:34.500Z,100.00
2023-11-15T08:27:02.216Z,100.00
2023-11-15T08:29:30.000Z,100.00
2023-11-15T08:31:58.840Z,100.00
2023-11-15T08:34:25.996Z,100.00
2023-11-15T08:36:54.271Z,100.00
2023-11-15T08:39:23.254Z,100.00
2023-11-15T08:41:50.839Z,100.00
2023-11-15T08:44:19.053Z,100.00
2023-11-15T08:46:46.767Z,100.00
2023-11-15T08:49:16.964Z,100.00
2023-11-15T08:51:51.943Z,100.00
2023-11-15T08:54:19.296Z,100.00
2023-11-15T08:56:46.648Z,100.00
2023-11-15T08:59:17.200Z,97.89
2023-11-15T09:01:46.144Z,95.28
2023-11-15T09:04:18.188Z,91.83
2023-11-15T09:06:49.836Z,90.72
2023-11-15T09:09:17.893Z,86.38
2023-11-15T09:11:46.225Z,88.56
2023-11-15T09:14:15.924Z,91.10
2023-11-15T09:16:46.111Z,89.06
2023-11-15T09:19:18.141Z,89.48
2023-11-15T09:21:49.299Z,88.70
2023-11-15T09:24:23.534Z,88.60
2023-11-15T09:26:51.923Z,85.53
2023-11-15T09:29:20.814Z,85.69
2023-11-15T09:31:48.106Z,82.82
2023-11-15T09:34:15.412Z,83.06
2023-11-15T09:36:43.765Z,81.97
2023-11-15T09:39:11.536Z,82.40
2023-11-15T09:41:39.075Z,84.91
2023-11-15T09:44:12.448Z,86.52
2023-11-15T09:46:40.239Z,85.47
2023-11-15T09:49:09.050Z,85.53
2023-11-15T09:51:38.507Z,86.18
2023-11-15T09:54:13.088Z,84.50
2023-11-15T09:56:46.880Z,84.57
2023-11-15T09:59:15.952Z,82.99
2023-11-15T10:01:50.641Z,83.32
2023-11-15T10:04:29.138Z,84.07
2023-11-15T10:07:03.788Z,85.33
2023-11-15T10:09:37.449Z,86.64
2023-11-15T10:12:07.519Z,87.70
2023-11-15T10:14:36.708Z,87.45
2023-11-15T10:17:04.665Z,89.52
2023-11-15T10:19:31.982Z,90.38
2023-11-15T10:22:05.642Z,90.73
2023-11-15T10:24:36.163Z,91.43
2023-11-15T10:27:10.058Z,93.28
2023-11-15T10:29:40.594Z,92.33
2023-11-15T10:32:08.046Z,92.72
2023-11-15T10:34:48.154Z,92.59
2023-11-15T10:37:15.302Z,93.70
2023-11-15T10:39:45.144Z,94.03
2023-11-15T10:42:14.005Z,94.34
2023-11-15T10:44:43.583Z,94.51
2023-11-15T10:47:11.747Z,95.13
2023-11-15T10:49:44.756Z,92.84
2023-11-15T10:52:15.336Z,95.52
2023-11-15T10:54:43.967Z,94.77
2023-11-15T10:57:12.755Z,95.00
2023-11-15T10:59:42.198Z,94.47
2023-11-15T11:02:11.100Z,93.05
2023-11-15T11:04:40.387Z,92.30
2023-11-15T11:07:34.728Z,91.04
2023-11-15T11:10:18.117Z,91.79
2023-11-15T11:12:46.224Z,92.56
2023-11-15T11:15:20.309Z,92.32
2023-11-15T11:17:49.825Z,92.27
2023-11-15T11:20:28.331Z,91.74
2023-11-15T11:23:23.279Z,92.63
2023-11-15T11:25:53.190Z,92.05
2023-11-15T11:28:23.383Z,92.52
2023-11-15T11:31:20.052Z,90.94
2023-11-15T11:34:10.672Z,90.52
2023-11-15T11:36:59.875Z,88.47
2023-11-15T11:39:45.832Z,86.71
2023-11-15T11:42:28.701Z,87.73
2023-11-15T11:44:56.471Z,88.74
2023-11-15T11:47:24.292Z,88.56
2023-11-15T11:49:53.700Z,86.49
2023-11-15T11:52:21.211Z,86.02
2023-11-15T11:54:54.102Z,85.85
2023-11-15T11:57:25.621Z,85.01
2023-11-15T12:00:15.071Z,85.39
2023-11-15T12:02:50.408Z,84.93
2023-11-15T12:05:25.995Z,86.60
2023-11-15T12:07:57.448Z,85.65
2023-11-15T12:10:26.522Z,85.62
2023-11-15T12:13:06.849Z,85.37
2023-11-15T12:15:38.255Z,86.67
2023-11-15T12:18:07.463Z,86.94
2023-11-15T12:20:44.819Z,88.44
2023-11-15T12:23:19.373Z,85.92
2023-11-15T12:25:55.594Z,89.61
2023-11-15T12:28:28.420Z,90.94
2023-11-15T12:30:58.109Z,90.39
2023-11-15T12:33:45.974Z,89.63
2023-11-15T12:36:14.528Z,90.13
2023-11-15T12:38:56.242Z,92.28
2023-11-15T12:41:23.814Z,93.90
2023-11-15T12:44:04.441Z,91.83
2023-11-15T12:46:31.711Z,94.83
2023-11-15T12:48:58.998Z,97.57
2023-11-15T12:51:26.054Z,99.26
2023-11-15T12:53:55.246Z,100.00
2023-11-15T12:56:22.494Z,100.00
2023-11-15T12:58:50.839Z,100.00
2023-11-15T13:01:20.208Z,100.00
2023-11-15T13:03:55.863Z,100.00
2023-11-15T13:06:25.795Z,100.00
2023-11-15T13:08:55.066Z,100.00
2023-11-15T13:11:26.248Z,100.00
2023-11-15T13:13:55.027Z,100.00
2023-11-15T13:16:25.258Z,100.00
2023-11-15T13:18:52.531Z,100.00
2023-11-15T13:21:23.443Z,100.00
2023-11-15T13:23:55.318Z,100.00
2023-11-15T13:26:24.732Z,100.00
2023-11-15T13:28:52.065Z,100.00
2023-11-15T13:31:25.792Z,100.00
2023-11-15T13:33:57.142Z,100.00
2023-11-15T13:36:26.433Z,100.00
2023-11-15T13:38:53.739Z,100.00
2023-11-15T13:41:24.770Z,98.64
2023-11-15T13:43:55.969Z,98.77
2023-11-15T13:46:30.098Z,97.88
2023-11-15T13:48:59.773Z,97.39
2023-11-15T13:51:26.934Z,97.71
2023-11-15T13:53:54.005Z,97.66
2023-11-15T13:56:21.231Z,97.19
2023-11-15T13:58:48.369Z,97.60
2023-11-15T14:01:15.477Z,97.73
2023-11-15T14:03:43.992Z,97.10
2023-11-15T14:06:12.391Z,97.00
2023-11-15T14:08:51.373Z,96.96
2023-11-15T14:11:26.499Z,97.30
2023-11-15T14:13:53.683Z,95.96
2023-11-15T14:16:22.108Z,96.06
2023-11-15T14:18:51.364Z,96.11
2023-11-15T14:21:19.426Z,95.07
2023-11-15T14:23:46.643Z,94.90
2023-11-15T14:26:15.605Z,95.29
2023-11-15T14:28:46.736Z,95.00
2023-11-15T14:31:14.375Z,95.43
2023-11-15T14:33:41.663Z,94.96
2023-11-15T14:36:11.066Z,95.47
2023-11-15T14:38:38.656Z,95.83
2023-11-15T14:41:06.150Z,96.19
2023-11-15T14:43:33.292Z,95.35
2023-11-15T14:46:00.519Z,95.99
2023-11-15T14:48:28.184Z,95.42
2023-11-15T14:50:55.769Z,96.61
2023-11-15T14:53:22.864Z,96.18
2023-11-15T14:55:50.753Z,97.13
2023-11-15T14:58:19.819Z,96.68
2023-11-15T15:00:47.891Z,97.39
2023-11-15T15:03:16.086Z,97.52
2023-11-15T15:05:43.401Z,96.63
2023-11-15T15:08:13.047Z,97.02
2023-11-15T15:10:40.561Z,96.56
2023-11-15T15:13:11.388Z,96.76
2023-11-15T15:15:39.829Z,96.67
2023-11-15T15:18:13.428Z,97.70
2023-11-15T15:20:45.473Z,97.59
2023-11-15T15:23:13.916Z,97.67
2023-11-15T15:25:43.572Z,98.13
2023-11-15T15:28:10.775Z,97.77
2023-11-15T15:30:38.594Z,98.11
2023-11-15T15:33:08.593Z,98.39
2023-11-15T15:35:36.346Z,98.85
2023-11-15T15:38:03.962Z,99.73
2023-11-15T15:40:38.079Z,99.67
2023-11-15T15:43:05.420Z,99.65
2023-11-15T15:45:32.614Z,99.29
2023-11-15T15:48:01.325Z,99.31
2023-11-15T15:50:28.927Z,99.01
2023-11-15T15:52:56.460Z,98.71
2023-11-15T15:55:23.980Z,98.28
2023-11-15T15:57:51.393Z,96.98
2023-11-15T16:00:19.066Z,97.71
2023-11-15T16:02:48.072Z,97.13
2023-11-15T16:05:17.738Z,96.32
2023-11-15T16:07:47.745Z,95.38
2023-11-15T16:10:14.887Z,94.50
2023-11-15T16:12:41.954Z,95.25
2023-11-15T16:15:17.366Z,95.49
2023-11-15T16:17:45.146Z,95.12
2023-11-15T16:20:13.302Z,94.79
2023-11-15T16:22:40.880Z,94.19
2023-11-15T16:25:08.444Z,94.34
2023-11-15T16:27:37.794Z,94.82
2023-11-15T16:30:06.630Z,94.10
2023-11-15T16:32:36.596Z,94.37
2023-11-15T16:35:05.509Z,93.52
2023-11-15T16:37:36.186Z,93.67
2023-11-15T16:40:06.594Z,93.60
2023-11-15T16:42:34.263Z,93.67
2023-11-15T16:45:02.592Z,93.78
2023-11-15T16:47:30.059Z,93.14
2023-11-15T16:49:59.123Z,92.26
2023-11-15T16:52:26.315Z,93.27
2023-11-15T16:54:53.493Z,92.22
2023-11-15T16:57:20.748Z,93.40
2023-11-15T16:59:50.355Z,91.99
2023-11-15T17:02:18.750Z,93.42
2023-11-15T17:04:46.256Z,93.31
2023-11-15T17:07:13.370Z,92.78
2023-11-15T17:09:42.106Z,91.59
2023-11-15T17:12:09.741Z,90.95
2023-11-15T17:14:36.966Z,90.08
2023-11-15T17:17:05.704Z,91.68
2023-11-15T17:19:32.915Z,91.12
2023-11-15T17:22:00.069Z,90.99
2023-11-15T17:24:27.542Z,91.14
2023-11-15T17:26:54.920Z,90.72
2023-11-15T17:29:22.070Z,91.16
2023-11-15T17:31:49.279Z,90.80
2023-11-15T17:34:16.669Z,89.40
2023-11-15T17:36:44.812Z,89.53
2023-11-15T17:39:13.926Z,90.59
2023-11-15T17:41:42.451Z,90.75
2023-11-15T17:44:12.987Z,90.71
2023-11-15T17:46:43.664Z,90.24
2023-11-15T17:49:12.263Z,90.69
2023-11-15T17:51:39.816Z,90.38
2023-11-15T17:54:11.397Z,89.88
2023-11-15T17:56:38.606Z,89.33
2023-11-15T17:59:05.904Z,90.09
2023-11-15T18:01:39.608Z,89.14
2023-11-15T18:04:10.698Z,90.02
2023-11-15T18:06:38.752Z,90.25
2023-11-15T18:09:08.442Z,89.96
2023-11-15T18:11:36.609Z,89.17
2023-11-15T18:14:03.973Z,89.05
2023-11-15T18:16:32.133Z,89.70
2023-11-15T18:19:06.141Z,89.42
2023-11-15T18:21:33.835Z,90.18
2023-11-15T18:24:01.888Z,89.16
2023-11-15T18:26:31.239Z,89.63
2023-11-15T18:28:58.645Z,90.18
2023-11-15T18:31:27.308Z,90.10
2023-11-15T18:33:57.683Z,90.58
2023-11-15T18:36:25.882Z,90.60
2023-11-15T18:38:53.329Z,90.42
2023-11-15T18:41:20.461Z,90.52
2023-11-15T18:43:50.010Z,90.58
2023-11-15T18:46:17.564Z,90.89
2023-11-15T18:48:45.006Z,90.53
2023-11-15T18:51:12.990Z,90.79
2023-11-15T18:53:40.741Z,90.02
2023-11-15T18:56:08.679Z,89.78
2023-11-15T18:58:37.034Z,90.44
2023-11-15T19:01:04.624Z,90.58
2023-11-15T19:03:32.052Z,90.78
2023-11-15T19:05:59.646Z,90.47
2023-11-15T19:08:26.835Z,91.06
2023-11-15T19:10:55.637Z,91.26
2023-11-15T19:13:26.304Z,91.41
2023-11-15T19:15:59.277Z,91.41
2023-11-15T19:18:29.930Z,91.77
2023-11-15T19:20:58.945Z,91.53
2023-11-15T19:23:26.588Z,91.88
2023-11-15T19:25:53.737Z,92.21
2023-11-15T19:28:21.512Z,92.43
2023-11-15T19:30:50.464Z,92.42
2023-11-15T19:33:18.394Z,92.41
2023-11-15T19:35:47.024Z,92.17
2023-11-15T19:38:14.283Z,92.05
2023-11-15T19:40:41.493Z,92.85
2023-11-15T19:43:10.522Z,92.54
2023-11-15T19:45:38.121Z,92.11
2023-11-15T19:48:06.471Z,92.43
2023-11-15T19:50:35.043Z,93.21
2023-11-15T19:53:04.682Z,93.07
2023-11-15T19:55:32.432Z,93.38
2023-11-15T19:57:59.640Z,93.48
2023-11-15T20:00:26.857Z,93.80
2023-11-15T20:02:54.142Z,92.92
2023-11-15T20:05:22.626Z,93.18
2023-11-15T20:07:49.903Z,93.32
2023-11-15T20:10:17.183Z,93.85
2023-11-15T20:12:44.887Z,93.64
2023-11-15T20:15:13.752Z,93.76
2023-11-15T20:17:42.712Z,93.88
2023-11-15T20:20:10.985Z,93.97
2023-11-15T20:22:45.625Z,93.09
2023-11-15T20:25:20.536Z,92.76
2023-11-15T20:27:47.753Z,92.54
2023-11-15T20:30:15.505Z,93.75
2023-11-15T20:32:42.937Z,94.27
2023-11-15T20:35:12.053Z,93.93
2023-11-15T20:37:39.384Z,94.05
2023-11-15T20:40:09.126Z,94.17
2023-11-15T20:42:36.555Z,94.84
2023-11-15T20:45:04.172Z,95.29
2023-11-15T20:47:33.376Z,95.09
2023-11-15T20:50:00.801Z,95.27
2023-11-15T20:52:27.918Z,93.36
2023-11-15T20:54:55.133Z,93.12
2023-11-15T20:57:24.165Z,94.23
2023-11-15T20:59:58.317Z,95.26
2023-11-15T21:02:26.524Z,95.68
2023-11-15T21:04:56.778Z,96.54
2023-11-15T21:07:24.574Z,96.86
2023-11-15T21:09:53.999Z,97.01
2023-11-15T21:12:22.330Z,96.03
2023-11-15T21:14:49.483Z,95.79
2023-11-15T21:17:16.585Z,95.66
2023-11-15T21:19:43.685Z,95.39
2023-11-15T21:22:10.793Z,95.34
2023-11-15T21:24:37.987Z,95.29
2023-11-15T21:27:05.526Z,95.55
2023-11-15T21:29:33.304Z,95.56
2023-11-15T21:32:01.160Z,95.32
2023-11-15T21:34:28.511Z,95.34
2023-11-15T21:37:03.191Z,95.51
2023-11-15T21:39:37.221Z,94.93
2023-11-15T21:42:05.594Z,95.66
2023-11-15T21:44:32.727Z,95.30
2023-11-15T21:47:00.005Z,95.33
2023-11-15T21:49:27.374Z,93.53
2023-11-15T21:51:54.513Z,94.92
2023-11-15T21:54:21.647Z,93.65
2023-11-15T21:56:48.710Z,95.06
2023-11-15T21:59:15.784Z,95.09
2023-11-15T22:01:42.905Z,93.34
2023-11-15T22:04:10.196Z,93.42
2023-11-15T22:06:38.326Z,94.99
2023-11-15T22:09:06.172Z,94.94
2023-11-15T22:11:33.373Z,94.69
2023-11-15T22:14:00.660Z,94.17
2023-11-15T22:16:27.750Z,94.94
2023-11-15T22:18:55.009Z,95.94
2023-11-15T22:21:23.418Z,95.66
2023-11-15T22:23:50.607Z,95.88
2023-11-15T22:26:17.875Z,95.98
2023-11-15T22:28:44.910Z,95.75
2023-11-15T22:31:13.932Z,96.06
2023-11-15T22:33:41.158Z,96.21
2023-11-15T22:36:08.676Z,96.06
2023-11-15T22:38:36.568Z,96.70
2023-11-15T22:41:05.497Z,96.95
2023-11-15T22:43:32.595Z,96.24
2023-11-15T22:45:59.709Z,96.91
2023-11-15T22:48:26.846Z,96.68
2023-11-15T22:50:56.497Z,96.54
2023-11-15T22:53:23.812Z,97.20
2023-11-15T22:55:50.934Z,97.02
2023-11-15T22:58:18.244Z,96.41
2023-11-15T23:00:48.590Z,95.42
2023-11-15T23:03:16.230Z,96.20
2023-11-15T23:05:44.182Z,95.99
2023-11-15T23:08:15.727Z,96.23
2023-11-15T23:10:45.712Z,95.97
2023-11-15T23:13:12.941Z,96.61
2023-11-15T23:15:40.118Z,96.04
2023-11-15T23:18:07.354Z,95.83
2023-11-15T23:20:35.260Z,96.22
2023-11-15T23:23:03.103Z,94.01
2023-11-15T23:25:30.583Z,95.07
2023-11-15T23:27:57.749Z,95.03
2023-11-15T23:30:25.387Z,95.81
2023-11-15T23:32:53.592Z,95.88
2023-11-15T23:35:21.594Z,94.54
2023-11-15T23:37:49.350Z,95.45
2023-11-15T23:40:16.732Z,95.84
2023-11-15T23:42:46.728Z,97.00
2023-11-15T23:45:15.770Z,97.14
2023-11-15T23:47:43.452Z,97.70
2023-11-15T23:50:11.062Z,97.64
2023-11-15T23:52:38.120Z,97.72
2023-11-15T23:55:05.840Z,97.92
2023-11-15T23:57:33.812Z,98.57
